createdAt,value
2019-02-11T00:00:42.968Z,99051.80
2019-02-11T00:03:12.268Z,99058.17
2019-02-11T00:05:41.470Z,99062.50
2019-02-11T00:08:10.774Z,99069.02
2019-02-11T00:10:39.767Z,99075.52
2019-02-11T00:13:10.669Z,99078.23
2019-02-11T00:15:39.415Z,99080.39
2019-02-11T00:18:08.036Z,99082.63
2019-02-11T00:20:36.680Z,99082.72
2019-02-11T00:23:05.302Z,99087.06
2019-02-11T00:25:34.238Z,99091.83
2019-02-11T00:28:02.859Z,99094.89
2019-02-11T00:30:31.553Z,99102.22
2019-02-11T00:33:00.245Z,99105.27
2019-02-11T00:35:29.229Z,99116.84
2019-02-11T00:37:58.590Z,99113.03
2019-02-11T00:40:27.302Z,99122.89
2019-02-11T00:42:56.576Z,99129.35
2019-02-11T00:45:25.225Z,99140.95
2019-02-11T00:47:54.474Z,99141.81
2019-02-11T00:50:23.436Z,99142.28
2019-02-11T00:52:52.346Z,99158.59
2019-02-11T00:55:21.289Z,99165.91
2019-02-11T00:57:50.525Z,99160.36
2019-02-11T01:00:19.165Z,99174.50
2019-02-11T01:02:51.203Z,99175.38
2019-02-11T01:05:19.838Z,99174.12
2019-02-11T01:07:48.484Z,99177.98
2019-02-11T01:10:17.126Z,99194.27
2019-02-11T01:12:46.046Z,99198.55
2019-02-11T01:15:14.770Z,99200.70
2019-02-11T01:17:43.402Z,99220.00
2019-02-11T01:20:13.025Z,99230.72
2019-02-11T01:22:41.942Z,99227.75
2019-02-11T01:25:10.912Z,99252.17
2019-02-11T01:27:39.903Z,99253.48
2019-02-11T01:30:11.769Z,99266.35
2019-02-11T01:32:40.769Z,99265.47
2019-02-11T01:35:09.852Z,99265.89
2019-02-11T01:37:39.192Z,99267.18
2019-02-11T01:40:10.157Z,99271.47
2019-02-11T01:42:39.189Z,99280.05
2019-02-11T01:45:09.671Z,99289.91
2019-02-11T01:47:38.643Z,99298.50
2019-02-11T01:50:09.386Z,99298.92
2019-02-11T01:52:38.054Z,99289.02
2019-02-11T01:55:06.764Z,99312.61
2019-02-11T01:57:35.445Z,99307.89
2019-02-11T02:00:04.911Z,99316.86
2019-02-11T02:02:33.596Z,99325.47
2019-02-11T02:05:02.897Z,99330.62
2019-02-11T02:07:31.890Z,99343.02
2019-02-11T02:10:01.499Z,99357.57
2019-02-11T02:12:30.100Z,99345.56
2019-02-11T02:14:59.072Z,99357.96
2019-02-11T02:17:28.376Z,99355.00
2019-02-11T02:19:57.778Z,99360.59
2019-02-11T02:22:26.666Z,99374.73
2019-02-11T02:24:55.869Z,99368.78
2019-02-11T02:27:24.786Z,99374.31
2019-02-11T02:29:53.401Z,99373.50
2019-02-11T02:32:22.335Z,99377.37
2019-02-11T02:34:52.833Z,99388.13
2019-02-11T02:37:21.860Z,99385.56
2019-02-11T02:39:50.854Z,99392.81
2019-02-11T02:42:20.155Z,99400.09
2019-02-11T02:44:49.047Z,99403.15
2019-02-11T02:47:18.239Z,99410.92
2019-02-11T02:49:47.123Z,99430.23
2019-02-11T02:52:15.934Z,99423.80
2019-02-11T02:54:45.220Z,99438.40
2019-02-11T02:57:14.434Z,99448.70
2019-02-11T02:59:43.441Z,99454.31
2019-02-11T03:02:12.092Z,99447.41
2019-02-11T03:04:40.750Z,99453.42
2019-02-11T03:07:09.998Z,99446.98
2019-02-11T03:09:39.294Z,99453.84
2019-02-11T03:12:08.310Z,99467.55
2019-02-11T03:14:36.944Z,99471.86
2019-02-11T03:17:05.577Z,99474.05
2019-02-11T03:19:34.550Z,99479.20
2019-02-11T03:22:03.443Z,99468.05
2019-02-11T03:24:32.638Z,99496.42
2019-02-11T03:27:01.841Z,99491.71
2019-02-11T03:29:30.475Z,99501.59
2019-02-11T03:32:00.105Z,99494.72
2019-02-11T03:34:29.258Z,99509.31
2019-02-11T03:36:58.226Z,99489.58
2019-02-11T03:39:27.623Z,99508.94
2019-02-11T03:41:56.617Z,99518.82
2019-02-11T03:44:25.508Z,99523.55
2019-02-11T03:46:54.133Z,99535.61
2019-02-11T03:49:23.090Z,99527.02
2019-02-11T03:51:51.814Z,99531.74
2019-02-11T03:54:20.770Z,99533.03
2019-02-11T03:56:50.067Z,99542.05
2019-02-11T03:59:19.365Z,99546.77
2019-02-11T04:01:48.563Z,99560.09
2019-02-11T04:04:17.560Z,99552.36
2019-02-11T04:06:46.513Z,99551.50
2019-02-11T04:09:15.852Z,99575.98
2019-02-11T04:11:44.829Z,99571.26
2019-02-11T04:14:13.735Z,99568.69
2019-02-11T04:16:43.443Z,99577.31
2019-02-11T04:19:12.346Z,99591.92
2019-02-11T04:21:41.006Z,99583.33
2019-02-11T04:24:09.916Z,99579.89
2019-02-11T04:26:39.221Z,99584.61
2019-02-11T04:29:07.920Z,99590.59
2019-02-11T04:31:37.302Z,99595.30
2019-02-11T04:34:07.129Z,99604.37
2019-02-11T04:36:36.428Z,99604.37
2019-02-11T04:39:06.451Z,99611.24
2019-02-11T04:41:35.889Z,99619.84
2019-02-11T04:44:04.840Z,99619.89
2019-02-11T04:46:33.502Z,99624.19
2019-02-11T04:49:02.440Z,99633.64
2019-02-11T04:51:33.598Z,99631.92
2019-02-11T04:54:02.864Z,99643.11
2019-02-11T04:56:31.746Z,99646.54
2019-02-11T04:59:00.452Z,99651.70
2019-02-11T05:01:29.127Z,99649.16
2019-02-11T05:03:58.119Z,99650.45
2019-02-11T05:06:27.413Z,99660.34
2019-02-11T05:08:56.629Z,99657.34
2019-02-11T05:11:25.615Z,99657.34
2019-02-11T05:13:54.593Z,99668.56
2019-02-11T05:16:23.265Z,99687.04
2019-02-11T05:18:52.180Z,99675.44
2019-02-11T05:21:21.071Z,99679.30
2019-02-11T05:23:49.766Z,99670.70
2019-02-11T05:26:19.062Z,99689.57
2019-02-11T05:28:48.664Z,99690.48
2019-02-11T05:31:17.314Z,99695.64
2019-02-11T05:33:46.552Z,99696.06
2019-02-11T05:36:15.547Z,99702.08
2019-02-11T05:38:44.537Z,99695.16
2019-02-11T05:41:13.531Z,99707.66
2019-02-11T05:43:42.524Z,99711.09
2019-02-11T05:46:11.723Z,99717.94
2019-02-11T05:48:40.619Z,99720.13
2019-02-11T05:51:10.188Z,99736.39
2019-02-11T05:53:38.844Z,99722.62
2019-02-11T05:56:07.581Z,99749.28
2019-02-11T05:58:37.120Z,99750.14
2019-02-11T06:01:06.098Z,99759.61
2019-02-11T06:03:35.088Z,99745.00
2019-02-11T06:06:03.757Z,99760.45
2019-02-11T06:08:33.236Z,99762.61
2019-02-11T06:11:02.493Z,99761.33
2019-02-11T06:13:31.485Z,99761.33
2019-02-11T06:16:00.466Z,99777.65
2019-02-11T06:18:29.360Z,99781.95
2019-02-11T06:20:58.261Z,99786.25
2019-02-11T06:23:27.258Z,99792.27
2019-02-11T06:25:56.750Z,99798.28
2019-02-11T06:28:25.601Z,99793.97
2019-02-11T06:30:54.228Z,99802.59
2019-02-11T06:33:22.838Z,99813.75
2019-02-11T06:35:51.802Z,99826.62
2019-02-11T06:38:21.004Z,99836.53
2019-02-11T06:40:49.900Z,99826.20
2019-02-11T06:43:18.536Z,99848.09
2019-02-11T06:45:48.054Z,99830.50
2019-02-11T06:48:16.979Z,99836.06
2019-02-11T06:50:45.589Z,99846.73
2019-02-11T06:53:14.242Z,99851.91
2019-02-11T06:55:43.579Z,99851.09
2019-02-11T06:58:12.562Z,99854.05
2019-02-11T07:00:41.219Z,99862.62
2019-02-11T07:03:10.219Z,99866.48
2019-02-11T07:05:39.207Z,99873.79
2019-02-11T07:08:08.512Z,99874.22
2019-02-11T07:10:37.600Z,99882.81
2019-02-11T07:13:06.811Z,99889.27
2019-02-11T07:15:35.461Z,99896.16
2019-02-11T07:18:04.712Z,99910.76
2019-02-11T07:20:33.303Z,99916.78
2019-02-11T07:23:01.931Z,99910.32
2019-02-11T07:25:30.601Z,99929.66
2019-02-11T07:27:59.566Z,99918.50
2019-02-11T07:30:28.536Z,99933.95
2019-02-11T07:32:57.841Z,99936.09
2019-02-11T07:35:26.840Z,99940.03
2019-02-11T07:37:55.832Z,99955.02
2019-02-11T07:40:27.111Z,99953.80
2019-02-11T07:43:03.352Z,99956.81
2019-02-11T07:45:38.028Z,99978.64
2019-02-11T07:48:06.964Z,99984.72
2019-02-11T07:50:36.159Z,99981.72
2019-02-11T07:53:05.453Z,99980.38
2019-02-11T07:55:34.752Z,99982.92
2019-02-11T07:58:03.855Z,99991.48
2019-02-11T08:00:32.848Z,99992.84
2019-02-11T08:03:02.166Z,100010.86
2019-02-11T08:05:31.456Z,100017.39
2019-02-11T08:08:00.546Z,100039.31
2019-02-11T08:10:29.200Z,100033.73
2019-02-11T08:12:58.224Z,100035.06
2019-02-11T08:15:27.217Z,100065.52
2019-02-11T08:17:57.012Z,100039.77
2019-02-11T08:20:26.962Z,100052.64
2019-02-11T08:22:56.247Z,100074.57
2019-02-11T08:25:25.241Z,100068.58
2019-02-11T08:27:53.863Z,100059.50
2019-02-11T08:30:22.918Z,100086.51
2019-02-11T08:32:51.891Z,100094.75
2019-02-11T08:35:21.216Z,100098.95
2019-02-11T08:37:50.137Z,100088.16
2019-02-11T08:40:18.884Z,100106.55
2019-02-11T08:42:47.786Z,100121.13
2019-02-11T08:45:16.469Z,100126.62
2019-02-11T08:47:45.129Z,100130.48
2019-02-11T08:50:14.153Z,100134.28
2019-02-11T08:52:43.148Z,100151.98
2019-02-11T08:55:12.138Z,100142.08
2019-02-11T08:57:41.445Z,100149.39
2019-02-11T09:00:10.636Z,100161.94
2019-02-11T09:02:40.149Z,100167.72
2019-02-11T09:05:09.458Z,100186.56
2019-02-11T09:07:38.563Z,100202.50
2019-02-11T09:10:07.666Z,100199.06
2019-02-11T09:12:36.631Z,100207.29
2019-02-11T09:15:06.771Z,100212.36
2019-02-11T09:17:35.399Z,100224.46
2019-02-11T09:20:04.941Z,100227.17
2019-02-11T09:22:34.242Z,100224.63
2019-02-11T09:25:02.894Z,100237.98
2019-02-11T09:27:31.518Z,100253.59
2019-02-11T09:30:00.850Z,100254.54
2019-02-11T09:32:30.112Z,100273.88
2019-02-11T09:34:59.400Z,100273.80
2019-02-11T09:37:28.305Z,100285.70
2019-02-11T09:39:57.507Z,100281.55
2019-02-11T09:42:26.486Z,100289.41
2019-02-11T09:44:55.495Z,100302.39
2019-02-11T09:47:24.133Z,100303.10
2019-02-11T09:50:11.789Z,100300.91
2019-02-11T09:52:40.702Z,100318.64
2019-02-11T09:55:14.741Z,100319.95
2019-02-11T09:57:43.769Z,100325.10
2019-02-11T10:00:12.804Z,100328.95
2019-02-11T10:02:42.104Z,100334.45
2019-02-11T10:05:11.202Z,100346.45
2019-02-11T10:07:40.203Z,100352.56
2019-02-11T10:10:09.608Z,100347.45
2019-02-11T10:12:38.809Z,100359.56
2019-02-11T10:15:09.446Z,100381.28
2019-02-11T10:17:38.770Z,100373.06
2019-02-11T10:20:08.854Z,100376.23
2019-02-11T10:22:38.204Z,100384.12
2019-02-11T10:25:10.643Z,100384.03
2019-02-11T10:27:39.570Z,100388.93
2019-02-11T10:30:10.577Z,100401.45
2019-02-11T10:32:39.558Z,100416.52
2019-02-11T10:35:08.737Z,100424.03
2019-02-11T10:37:38.465Z,100424.51
2019-02-11T10:40:08.689Z,100434.12
2019-02-11T10:42:37.576Z,100440.47
2019-02-11T10:45:07.495Z,100469.25
2019-02-11T10:47:36.487Z,100468.38
2019-02-11T10:50:05.624Z,100474.57
2019-02-11T10:52:34.418Z,100490.48
2019-02-11T10:55:03.368Z,100480.72
2019-02-11T10:57:32.366Z,100491.45
2019-02-11T11:00:01.668Z,100490.24
2019-02-11T11:02:31.060Z,100495.84
2019-02-11T11:05:00.470Z,100490.95
2019-02-11T11:07:29.173Z,100499.29
2019-02-11T11:09:58.145Z,100502.44
2019-02-11T11:12:26.847Z,100519.59
2019-02-11T11:14:55.827Z,100515.18
2019-02-11T11:17:25.126Z,100522.52
2019-02-11T11:19:54.219Z,100553.25
2019-02-11T11:22:22.849Z,100541.22
2019-02-11T11:24:51.800Z,100564.41
2019-02-11T11:27:20.790Z,100563.03
2019-02-11T11:29:49.787Z,100578.95
2019-02-11T11:32:18.778Z,100573.84
2019-02-11T11:34:47.428Z,100559.74
2019-02-11T11:37:16.069Z,100576.58
2019-02-11T11:39:45.354Z,100576.82
2019-02-11T11:42:14.367Z,100598.42
2019-02-11T11:44:43.644Z,100596.73
2019-02-11T11:47:12.564Z,100591.53
2019-02-11T11:49:41.477Z,100596.89
2019-02-11T11:52:10.434Z,100610.70
2019-02-11T11:54:39.049Z,100606.33
2019-02-11T11:57:07.879Z,100612.47
2019-02-11T11:59:36.534Z,100614.59
2019-02-11T12:02:05.224Z,100619.61
2019-02-11T12:04:34.185Z,100643.20
2019-02-11T12:07:02.946Z,100644.97
2019-02-11T12:09:31.757Z,100646.09
2019-02-11T12:12:00.749Z,100669.91
2019-02-11T12:14:29.739Z,100668.12
2019-02-11T12:17:02.686Z,100667.33
2019-02-11T12:19:28.744Z,100677.62
2019-02-11T12:21:57.391Z,100681.27
2019-02-11T12:24:26.314Z,100692.67
2019-02-11T12:26:55.657Z,100685.50
2019-02-11T12:29:24.715Z,100692.03
2019-02-11T12:31:53.422Z,100696.59
2019-02-11T12:34:22.714Z,100694.77
2019-02-11T12:36:53.841Z,100707.06
2019-02-11T12:39:22.469Z,100717.52
2019-02-11T12:41:51.566Z,100726.70
2019-02-11T12:44:20.537Z,100729.13
2019-02-11T12:46:49.165Z,100743.95
2019-02-11T12:49:18.102Z,100742.94
2019-02-11T12:51:47.323Z,100766.72
2019-02-11T12:54:15.916Z,100763.18
2019-02-11T12:56:44.604Z,100772.48
2019-02-11T12:59:13.315Z,100762.84
2019-02-11T13:01:41.897Z,100785.23
2019-02-11T13:04:10.947Z,100793.02
2019-02-11T13:06:39.588Z,100789.33
2019-02-11T13:09:08.602Z,100794.50
2019-02-11T13:11:37.247Z,100790.73
2019-02-11T13:14:05.898Z,100791.61
2019-02-11T13:16:34.675Z,100816.30
2019-02-11T13:19:03.697Z,100816.30
2019-02-11T13:21:32.970Z,100802.55
2019-02-11T13:24:01.702Z,100814.27
2019-02-11T13:26:30.709Z,100837.37
2019-02-11T13:29:00.203Z,100828.50
2019-02-11T13:31:29.175Z,100832.61
2019-02-11T13:33:57.798Z,100851.24
2019-02-11T13:36:26.860Z,100852.45
2019-02-11T13:38:55.534Z,100864.11
2019-02-11T13:41:24.166Z,100864.11
2019-02-11T13:43:52.798Z,100872.58
2019-02-11T13:46:21.463Z,100892.09
2019-02-11T13:48:51.449Z,100901.48
2019-02-11T13:51:20.801Z,100901.48
2019-02-11T13:53:49.872Z,100914.23
2019-02-11T13:56:18.502Z,100919.98
2019-02-11T13:58:51.989Z,100919.53
2019-02-11T14:01:18.236Z,100919.53
2019-02-11T14:03:47.314Z,100934.65
2019-02-11T14:06:16.032Z,100945.13
2019-02-11T14:08:44.978Z,100945.13
2019-02-11T14:11:13.641Z,100959.01
2019-02-11T14:14:00.445Z,100971.99
2019-02-11T14:16:13.289Z,100971.99
2019-02-11T14:18:42.300Z,100981.15
2019-02-11T14:21:11.074Z,100980.19
2019-02-11T14:23:40.029Z,100980.19
2019-02-11T14:26:08.670Z,100996.25
2019-02-11T14:28:37.339Z,100985.05
2019-02-11T14:31:06.335Z,101005.65
2019-02-11T14:33:35.757Z,101005.65
2019-02-11T14:36:05.782Z,101013.73
2019-02-11T14:38:34.650Z,101013.73
2019-02-11T14:41:03.631Z,101041.42
2019-02-11T14:43:32.634Z,101041.42
2019-02-11T14:46:01.297Z,101031.17
2019-02-11T14:48:30.185Z,101045.52
2019-02-11T14:50:59.502Z,101060.36
2019-02-11T14:53:28.416Z,101060.36
2019-02-11T14:55:57.382Z,101062.39
2019-02-11T14:58:26.020Z,101062.39
2019-02-11T15:00:55.011Z,101082.29
2019-02-11T15:03:23.660Z,101085.20
2019-02-11T15:05:52.629Z,101079.81
2019-02-11T15:08:21.642Z,101079.81
2019-02-11T15:10:50.604Z,101088.33
2019-02-11T15:13:19.554Z,101088.33
2019-02-11T15:15:48.842Z,101116.72
2019-02-11T15:18:17.819Z,101116.72
2019-02-11T15:20:47.119Z,101113.41
2019-02-11T15:23:15.793Z,101113.41
2019-02-11T15:25:45.108Z,101126.48
2019-02-11T15:28:13.998Z,101126.48
2019-02-11T15:30:42.997Z,101135.88
2019-02-11T15:33:11.662Z,101131.72
2019-02-11T15:35:40.277Z,101140.28
2019-02-11T15:38:08.908Z,101149.70
2019-02-11T15:40:37.971Z,101165.91
2019-02-11T15:43:06.958Z,101168.16
2019-02-11T15:45:35.573Z,101170.44
2019-02-11T15:48:04.612Z,101181.71
2019-02-11T15:50:33.624Z,101206.87
2019-02-11T15:53:02.915Z,101213.49
2019-02-11T15:55:31.919Z,101213.49
2019-02-11T15:58:01.104Z,101215.55
2019-02-11T16:00:30.096Z,101234.13
2019-02-11T16:02:59.400Z,101234.13
2019-02-11T16:05:28.393Z,101228.71
2019-02-11T16:07:57.149Z,101237.05
2019-02-11T16:10:27.000Z,101235.31
2019-02-11T16:12:55.993Z,101242.05
2019-02-11T16:15:25.008Z,101251.92
2019-02-11T16:17:53.666Z,101257.05
2019-02-11T16:20:22.645Z,101254.58
2019-02-11T16:22:51.344Z,101255.50
2019-02-11T16:25:20.645Z,101262.06
2019-02-11T16:27:49.732Z,101280.14
2019-02-11T16:30:18.978Z,101289.86
2019-02-11T16:32:47.778Z,101289.76
2019-02-11T16:35:16.548Z,101299.35
2019-02-11T16:37:45.651Z,101303.83
2019-02-11T16:40:17.067Z,101312.30
2019-02-11T16:42:45.697Z,101309.83
2019-02-11T16:45:14.749Z,101324.87
2019-02-11T16:47:43.740Z,101324.20
2019-02-11T16:50:12.459Z,101327.18
2019-02-11T16:52:41.425Z,101339.34
2019-02-11T16:55:10.317Z,101349.38
2019-02-11T16:57:39.616Z,101348.16
2019-02-11T17:00:11.027Z,101349.28
2019-02-11T17:02:39.954Z,101359.98
2019-02-11T17:05:09.175Z,101381.72
2019-02-11T17:07:41.986Z,101396.05
2019-02-11T17:10:09.905Z,101397.38
2019-02-11T17:12:38.610Z,101405.47
2019-02-11T17:15:09.622Z,101412.47
2019-02-11T17:17:38.266Z,101411.55
2019-02-11T17:20:07.815Z,101405.52
2019-02-11T17:22:36.556Z,101421.43
2019-02-11T17:25:05.585Z,101424.61
2019-02-11T17:27:34.504Z,101433.89
2019-02-11T17:30:03.226Z,101436.47
2019-02-11T17:32:32.183Z,101445.27
2019-02-11T17:35:00.809Z,101452.22
2019-02-11T17:37:29.758Z,101441.97
2019-02-11T17:39:58.378Z,101457.31
2019-02-11T17:42:27.344Z,101447.23
2019-02-11T17:44:57.150Z,101464.22
2019-02-11T17:47:26.321Z,101472.62
2019-02-11T17:49:55.513Z,101474.16
2019-02-11T17:52:24.659Z,101486.20
2019-02-11T17:54:53.442Z,101484.20
2019-02-11T17:57:22.488Z,101492.07
2019-02-11T17:59:51.762Z,101497.50
2019-02-11T18:02:21.009Z,101503.78
2019-02-11T18:04:50.590Z,101505.53
2019-02-11T18:07:19.428Z,101515.73
2019-02-11T18:09:48.198Z,101530.82
2019-02-11T18:12:17.311Z,101523.72
2019-02-11T18:14:46.064Z,101532.00
2019-02-11T18:17:14.854Z,101542.16
2019-02-11T18:19:43.633Z,101523.86
2019-02-11T18:22:12.515Z,101543.70
2019-02-11T18:24:41.490Z,101549.77
2019-02-11T18:27:11.066Z,101544.88
2019-02-11T18:29:39.758Z,101538.64
2019-02-11T18:32:08.816Z,101545.91
2019-02-11T18:34:38.052Z,101556.03
2019-02-11T18:37:07.006Z,101574.00
2019-02-11T18:39:35.960Z,101583.95
2019-02-11T18:42:05.033Z,101581.78
2019-02-11T18:44:34.025Z,101580.58
2019-02-11T18:47:02.940Z,101590.00
2019-02-11T18:49:34.609Z,101593.48
2019-02-11T18:52:02.477Z,101607.44
2019-02-11T18:54:31.251Z,101607.17
2019-02-11T18:57:00.291Z,101605.23
2019-02-11T18:59:29.017Z,101612.67
2019-02-11T19:01:58.095Z,101616.06
2019-02-11T19:04:27.324Z,101619.53
2019-02-11T19:06:56.263Z,101637.00
2019-02-11T19:09:25.011Z,101629.63
2019-02-11T19:11:54.087Z,101630.86
2019-02-11T19:14:23.178Z,101640.41
2019-02-11T19:16:52.825Z,101628.64
2019-02-11T19:19:21.639Z,101642.73
2019-02-11T19:21:50.589Z,101644.27
2019-02-11T19:24:19.561Z,101646.38
2019-02-11T19:26:48.456Z,101637.18
2019-02-11T19:29:17.101Z,101646.78
2019-02-11T19:31:46.330Z,101651.27
2019-02-11T19:34:15.003Z,101648.54
2019-02-11T19:36:44.091Z,101648.41
2019-02-11T19:39:13.031Z,101646.19
2019-02-11T19:41:43.085Z,101647.25
2019-02-11T19:44:15.242Z,101659.92
2019-02-11T19:46:44.202Z,101656.41
2019-02-11T19:49:13.506Z,101666.30
2019-02-11T19:51:42.483Z,101659.33
2019-02-11T19:54:11.786Z,101669.55
2019-02-11T19:56:40.791Z,101657.04
2019-02-11T19:59:09.453Z,101661.48
2019-02-11T20:01:38.699Z,101660.39
2019-02-11T20:04:08.112Z,101669.73
2019-02-11T20:06:37.275Z,101663.52
2019-02-11T20:09:06.358Z,101670.83
2019-02-11T20:11:37.865Z,101676.72
2019-02-11T20:14:07.021Z,101665.97
2019-02-11T20:16:35.947Z,101664.88
2019-02-11T20:19:04.679Z,101682.06
2019-02-11T20:21:33.617Z,101691.34
2019-02-11T20:24:02.688Z,101673.59
2019-02-11T20:26:31.409Z,101682.47
2019-02-11T20:29:00.172Z,101683.50
2019-02-11T20:31:29.055Z,101688.28
2019-02-11T20:33:57.703Z,101696.48
2019-02-11T20:36:26.631Z,101698.58
2019-02-11T20:38:55.271Z,101705.66
2019-02-11T20:41:24.211Z,101703.09
2019-02-11T20:43:53.822Z,101709.45
2019-02-11T20:46:23.013Z,101718.80
2019-02-11T20:48:52.027Z,101732.53
2019-02-11T20:51:20.999Z,101732.20
2019-02-11T20:53:50.005Z,101734.56
2019-02-11T20:56:18.888Z,101732.67
2019-02-11T20:58:47.781Z,101733.44
2019-02-11T21:01:16.413Z,101744.26
2019-02-11T21:03:47.008Z,101738.98
2019-02-11T21:06:16.603Z,101743.28
2019-02-11T21:08:45.907Z,101753.23
2019-02-11T21:11:14.893Z,101753.71
2019-02-11T21:13:43.579Z,101756.86
2019-02-11T21:16:12.573Z,101764.37
2019-02-11T21:18:41.204Z,101762.34
2019-02-11T21:21:09.888Z,101762.06
2019-02-11T21:23:39.154Z,101782.23
2019-02-11T21:26:08.809Z,101769.44
2019-02-11T21:28:38.360Z,101779.75
2019-02-11T21:31:07.766Z,101784.62
2019-02-11T21:33:36.469Z,101777.90
2019-02-11T21:36:05.438Z,101782.32
2019-02-11T21:38:34.333Z,101795.38
2019-02-11T21:41:03.942Z,101800.66
2019-02-11T21:43:33.248Z,101811.21
2019-02-11T21:46:02.160Z,101808.64
2019-02-11T21:48:31.025Z,101811.55
2019-02-11T21:50:59.915Z,101812.34
2019-02-11T21:53:29.117Z,101826.73
2019-02-11T21:55:58.010Z,101824.45
2019-02-11T21:58:26.906Z,101827.92
2019-02-11T22:01:02.103Z,101823.69
2019-02-11T22:03:26.630Z,101829.38
2019-02-11T22:05:55.517Z,101829.11
2019-02-11T22:08:24.517Z,101838.11
2019-02-11T22:10:53.519Z,101838.99
2019-02-11T22:13:22.427Z,101856.97
2019-02-11T22:15:51.395Z,101857.80
2019-02-11T22:18:20.906Z,101857.30
2019-02-11T22:20:50.116Z,101845.88
2019-02-11T22:23:19.092Z,101848.38
2019-02-11T22:25:48.113Z,101860.75
2019-02-11T22:28:17.086Z,101851.66
2019-02-11T22:30:45.729Z,101860.34
2019-02-11T22:33:14.969Z,101854.55
2019-02-11T22:35:44.271Z,101863.55
2019-02-11T22:38:13.289Z,101874.37
2019-02-11T22:40:42.072Z,101870.32
2019-02-11T22:43:11.309Z,101872.02
2019-02-11T22:45:41.404Z,101892.44
2019-02-11T22:48:10.566Z,101875.17
2019-02-11T22:50:43.155Z,101879.91
2019-02-11T22:53:09.931Z,101900.55
2019-02-11T22:55:38.864Z,101897.58
2019-02-11T22:58:07.872Z,101901.69
2019-02-11T23:00:51.613Z,101898.61
2019-02-11T23:03:20.707Z,101901.92
2019-02-11T23:05:49.328Z,101908.59
2019-02-11T23:08:18.307Z,101902.18
2019-02-11T23:10:47.070Z,101919.22
2019-02-11T23:13:16.578Z,101903.61
2019-02-11T23:15:45.884Z,101911.87
2019-02-11T23:18:14.876Z,101913.27
2019-02-11T23:20:51.487Z,101910.52
2019-02-11T23:23:14.397Z,101901.29
2019-02-11T23:25:43.390Z,101904.42
2019-02-11T23:28:12.691Z,101911.47
2019-02-11T23:30:41.660Z,101907.06
2019-02-11T23:33:10.690Z,101910.09
2019-02-11T23:35:39.408Z,101912.38
2019-02-11T23:38:08.365Z,101908.27
2019-02-11T23:40:37.972Z,101922.41
2019-02-11T23:43:06.964Z,101917.13
2019-02-11T23:45:35.700Z,101921.16
2019-02-11T23:48:04.768Z,101902.03
2019-02-11T23:50:33.639Z,101911.98
2019-02-11T23:53:02.325Z,101937.36
2019-02-11T23:55:31.306Z,101940.59
2019-02-11T23:57:59.925Z,101936.59
